• Join FlightAware (Why Join?)
  • Login
  • US Flag 
12:26PM EDT


 

Airport Tracker/Info


-or-


 

Live Flight TrackerFlight Track Log ✈ SAS867 ✈ 22-Nov-2013 ✈ ESSA / ARN - ENGM / OSL

Flight Track Log - Related Links

Times and Time Zones

All times are in EST time to prevent confusion due to time zone crossing. See the SAS867 flight status page for this flight to view local times or setup timezone preferences in your user account.

Time Position Orientation Groundspeed Altitude Reporting Facility
EST Latitude Longitude Course Direction KTS MPH feet Rate Location/Type
08:45AM 59.7175 17.2901 282° West  Level Estimated
08:46AM 59.7387 17.0801 281° West  Level Estimated
08:47AM 59.7596 16.8698 281° West  Level Estimated
08:48AM 59.7801 16.6592 281° West  Level Estimated
08:49AM 59.7959 16.4947 281° West  Level Estimated
08:50AM 59.8115 16.3300 281° West  Level Estimated
08:51AM 59.8268 16.1652 281° West  Level Estimated
08:52AM 59.8420 16.0002 280° West  Level Estimated
08:53AM 59.8570 15.8351 280° West  Level Estimated
08:54AM 59.8717 15.6698 280° West  Level Estimated
08:55AM 59.8863 15.5044 280° West  Level Estimated
08:56AM 59.9006 15.3388 280° West  Level Estimated
08:57AM 59.9147 15.1731 280° West  Level Estimated
08:58AM 59.9287 15.0073 280° West  Level Estimated
08:59AM 59.9424 14.8413 279° West  Level Estimated
09:00AM 59.9559 14.6751 279° West  Level Estimated
09:01AM 59.9692 14.5089 279° West  Level Estimated
09:02AM 59.9823 14.3425 279° West  Level Estimated
09:03AM 59.9952 14.1760 279° West  Level Estimated
09:04AM 60.0078 14.0093 279° West  Level Estimated
09:05AM 60.0203 13.8426 279° West  Level Estimated
09:06AM 60.0325 13.6757 278° West  Level Estimated
09:07AM 60.0446 13.5086 278° West  Level Estimated
09:08AM 60.0564 13.3415 278° West  Level Estimated
09:09AM 60.0680 13.1742 278° West  Level Estimated
09:10AM 60.0794 13.0069 278° West  Level Estimated
09:11AM 60.0906 12.8394 278° West  Level Estimated
09:12AM 60.1016 12.6718 278° West  Level Estimated
09:13AM 60.1124 12.5040 277° West  Level Estimated
09:14AM 60.1229 12.3362 277° West  Level Estimated
09:15AM 60.1333 12.1683 277° West  Level Estimated
09:16AM 60.1434 12.0002 277° West  Level Estimated
09:17AM 60.1533 11.8321 277° West  Level Estimated
09:18AM 60.1650 11.6292 277° West  Level Estimated
09:19AM 60.1763 11.4262 277° West  Level Estimated
09:20AM 60.1874 11.2230 276° West  Level Estimated
09:21AM 60.1939 11.1004 276° West  Level Estimated
09:22AM 60.1939 11.1004 171° South  Level Estimated
09:23AM 60.1939 11.1004 171° South  Level Estimated
09:24AM 60.1939 11.1004 171° South  Level Estimated
09:25AM 60.1939 11.1004 171° South  Level Estimated
09:26AM 60.1939 11.1004 171° South  Level Estimated
09:27AM 60.1939 11.1004 171° South  Level Estimated
09:28AM 60.1939 11.1004 171° South  Level Estimated
09:29AM 60.1939 11.1004 171° South  Level Estimated
09:30AM 60.1939 11.1004 171° South  Level Estimated
09:31AM 60.1939 11.1004 171° South  Level Estimated
09:32AM 60.1939 11.1004 171° South  Level Estimated